»·PEaware :: N335AK O59-KMFR

N335AK :: O59-KMFR

FLIGHT INFORMATION

Flight Status: Arrived
Operator: Privately registered:
United States
More flights under this callsign
Pilot: Gabor H. (24209)
Aircraft: Unknown
(EPIC)
More flights by this aircraft type
Origin: O59 Cedarville
United States
Destination: KMFR Rogue Valley Intl-Medford
United States
More flights between these airports :: More routes between these airports
Route: DCT
File this flight plan on PilotEdge
Remarks:
Altitude:
(Current/Filed)
16,500ft
Speed:
(Current/Filed)
325kts
Departed: 29-Sep-20 10:22 AM
Arrived: 29-Sep-20 10:55 AM
Distance/Time
Traveled:
131nm/0:32
Distance/Time
To Go:
Arrived

Flight Plot

Page will automatically refresh every two minutes.

Flight plan parsing failed; only flown route is shown


Map Options




Map Legend


Flown Route
Filed Route
Departure Airport
Arrival Airport
Navaid (VOR, NDB)
Fix

Horizontal Profiles

Position Reports

Time Latitude Longitude Heading Altitude Ground
Speed
29-Sep-20 09:38 41.549898 -120.171057 270 4650ft 0kts
29-Sep-20 09:39 41.549898 -120.171057 270 4650ft 0kts
29-Sep-20 09:40 41.549898 -120.171057 270 4650ft 0kts
29-Sep-20 09:41 41.549898 -120.171057 270 4650ft 0kts
29-Sep-20 09:42 41.549898 -120.171057 270 4650ft 0kts
29-Sep-20 09:43 41.549898 -120.171057 270 4650ft 0kts
29-Sep-20 09:44 41.549898 -120.171057 270 4650ft 0kts
29-Sep-20 09:45 41.549898 -120.171057 270 4650ft 0kts
29-Sep-20 09:46 41.549898 -120.171057 270 4650ft 0kts
29-Sep-20 09:47 41.549898 -120.171057 270 4650ft 0kts
29-Sep-20 09:48 41.549898 -120.171057 270 4650ft 0kts
29-Sep-20 09:49 41.549898 -120.171057 270 4650ft 0kts
29-Sep-20 09:50 41.549898 -120.171057 270 4650ft 0kts
29-Sep-20 09:51 41.549898 -120.171057 270 4650ft 0kts
29-Sep-20 09:52 41.549898 -120.171057 270 4650ft 0kts
29-Sep-20 09:53 41.549898 -120.171057 270 4650ft 0kts
29-Sep-20 09:54 41.549898 -120.171057 270 4650ft 0kts
29-Sep-20 09:55 41.549898 -120.171057 270 4650ft 0kts
29-Sep-20 09:56 41.549898 -120.171057 270 4650ft 0kts
29-Sep-20 09:57 41.549898 -120.171057 270 4650ft 0kts
29-Sep-20 09:58 41.549898 -120.171057 270 4650ft 0kts
29-Sep-20 09:59 41.549898 -120.171057 270 4650ft 0kts
29-Sep-20 10:00 41.549898 -120.171057 270 4650ft 0kts
29-Sep-20 10:01 41.549898 -120.171057 270 4650ft 0kts
29-Sep-20 10:10 41.549898 -120.171057 270 4650ft 0kts
29-Sep-20 10:11 41.549898 -120.171057 270 4650ft 0kts
29-Sep-20 10:12 41.549898 -120.171057 270 4650ft 0kts
29-Sep-20 10:13 41.549898 -120.171057 270 4650ft 0kts
29-Sep-20 10:14 41.549898 -120.171057 269 4650ft 0kts
29-Sep-20 10:15 41.549898 -120.171057 269 4650ft 0kts
29-Sep-20 10:16 41.549898 -120.171057 269 4650ft 0kts
29-Sep-20 10:17 41.549898 -120.171057 269 4650ft 0kts
29-Sep-20 10:18 41.549898 -120.171057 269 4650ft 0kts
29-Sep-20 10:19 41.548646 -120.169971 130 4637ft 6kts
29-Sep-20 10:20 41.549085 -120.169095 28 4631ft 35kts
29-Sep-20 10:21 41.577574 -120.147797 26 6045ft 162kts
29-Sep-20 10:22 41.627260 -120.120583 9 8516ft 226kts
29-Sep-20 10:23 41.691983 -120.120471 357 11305ft 242kts
29-Sep-20 10:24 41.750964 -120.165080 325 13987ft 256kts
29-Sep-20 10:25 41.810175 -120.220741 326 16435ft 271kts
29-Sep-20 10:26 41.839033 -120.320492 280 16500ft 319kts
29-Sep-20 10:27 41.856394 -120.439697 281 16498ft 331kts
29-Sep-20 10:28 41.874344 -120.562058 281 16498ft 334kts
29-Sep-20 10:29 41.892196 -120.684697 280 16497ft 335kts
29-Sep-20 10:30 41.909930 -120.807502 280 16496ft 335kts
29-Sep-20 10:31 41.927581 -120.930712 280 16492ft 335kts
29-Sep-20 10:32 41.943700 -121.043838 280 16361ft 296kts
29-Sep-20 10:33 41.959797 -121.158267 280 16480ft 325kts
29-Sep-20 10:34 41.976835 -121.279915 280 16473ft 335kts
29-Sep-20 10:35 41.994036 -121.403780 280 16473ft 338kts
29-Sep-20 10:36 42.011134 -121.527938 280 16510ft 338kts
29-Sep-20 10:37 42.028144 -121.652502 280 16510ft 338kts
29-Sep-20 10:38 42.045023 -121.777148 280 16508ft 338kts
29-Sep-20 10:39 42.062088 -121.904140 279 15127ft 346kts
29-Sep-20 10:40 42.079009 -122.031299 279 13603ft 346kts
29-Sep-20 10:41 42.095115 -122.153345 279 12161ft 318kts
29-Sep-20 10:42 42.109857 -122.266061 279 10836ft 291kts
29-Sep-20 10:43 42.123271 -122.369453 280 9634ft 272kts
29-Sep-20 10:44 42.135823 -122.466853 280 8493ft 257kts
29-Sep-20 10:45 42.148262 -122.561861 288 7356ft 258kts
29-Sep-20 10:46 42.195034 -122.630579 316 6894ft 254kts
29-Sep-20 10:47 42.245209 -122.698387 316 5900ft 256kts
29-Sep-20 10:48 42.289884 -122.754725 319 4839ft 188kts
29-Sep-20 10:49 42.321437 -122.797193 316 3580ft 127kts
29-Sep-20 10:50 42.346431 -122.821555 337 2669ft 118kts
29-Sep-20 10:51 42.375997 -122.838520 338 2495ft 110kts
29-Sep-20 10:52 42.403958 -122.856794 294 2457ft 119kts
29-Sep-20 10:53 42.386447 -122.879374 156 1355ft 109kts
29-Sep-20 10:54 42.376175 -122.874805 252 1308ft 10kts
29-Sep-20 10:55 42.376078 -122.875195 250 1309ft 0kts
29-Sep-20 10:56 42.372746 -122.876207 294 1316ft 16kts
29-Sep-20 10:57 42.371837 -122.878225 111 1316ft 0kts
29-Sep-20 10:58 42.371837 -122.878225 111 1316ft 0kts
29-Sep-20 10:59 42.371837 -122.878225 111 1316ft 0kts
29-Sep-20 11:00 42.371837 -122.878225 111 1316ft 0kts
29-Sep-20 11:01 42.371837 -122.878225 111 1316ft 0kts
29-Sep-20 11:02 42.371837 -122.878225 111 1316ft 0kts
29-Sep-20 11:03 42.371837 -122.878225 111 1316ft 0kts
29-Sep-20 11:04 42.371837 -122.878225 111 1316ft 0kts
29-Sep-20 11:06 42.371837 -122.878225 111 1316ft 0kts

Navigation Log

Ident Type
Flight plan parsing failed, navigation log unavailable